Oslo, Norvegia

04:59 PM CEST on mai 24, 2015 (GMT +0200)
Kikut | | Change Station
CLOSE
Current Station
Staţie meteo personală
Location: Oslo, OSLO
Elevation: 1158 ft
Nearby Weather Stations

Elev 1158 ft 60.08 °N, 10.66 °E | Updated 1 minute ago

Drizzle
Burniţă
43.6 °F
Feels Like 39 °F
N
8.0
Vânt variabil Vânt from SE
Gusts 15.0 mph

astăzi
High -- | Low -- °F
--% Chance of Precip.
Ieri
High -- | Low -- °F
Precip. -- inch
4:19 AM 10:09 PM
Semilună în creştere, 40% visible
Presiunea 29.89 inch
Vizibilitatea 5.6 mile
Nori Cer în general noros 800 ft
Vânt rece 39 °F
Punctul de rouă 42 °F
Umiditatea 92%
Precipitaţii 0.02 inch
Adâncimea zăpezii Not available.
UV 2 out of 12
Pollen Not available.
Calitatea aerului Not available.
Flu Activity Not available.
METAR ENRY 241450Z 20013KT 9000 DZ BKN008 09/08 Q1012

More Conditions Fewer Conditions

Presiunea 29.89 inch
Vizibilitatea 5.6 mile
Nori Cer în general noros 800 ft
Vânt rece 39 °F
Punctul de rouă 42 °F
Umiditatea 92%
Precipitaţii 0.02 inch
Adâncimea zăpezii Not available.
UV 2 out of 12
Pollen Not available.
Calitatea aerului Not available.
Flu Activity Not available.
METAR ENRY 241450Z 20013KT 9000 DZ BKN008 09/08 Q1012

More Conditions Fewer Conditions

10-Day Weather Forecast

Almanac

Astronomie

May. 24, 2015 Răsărit Apus
Timpul Actual
Crepusculul Civil
Crepusculul nautic
Răsărit Astronomic
Luna
Durata zilei lumină
Lungimea zilei
Tomorrow will be .
, % of the Moon is Illuminated

Extremele de azi

Country Highs Country Lows

Community

WunderPhotos

Upload Photos

1,823,748 photos uploaded!

WunderBlogs® & News

Nearby

Calitatea aerului

  Calitatea aerului Index de calitate a aerului Poluat
Not available.

Adâncimea zapezii

Station Depth Elevation

Earthquake Activity

Oraş Distance Mag. Time & Date
Minimum magnitude displayed is 2.5.

Coastal Water Temperatures

Locul Temperatura

Stations

Nearby Weather Stations

Locaţia staţiei Temp Vânt rece Punctul de rouă Umiditatea Vânt Precip. Elev Actualizare Type